Time;durP1;ratioP1;P1;durP2;ratioP2;P2;SDS_P1;SDS_P2;PMS_P1;PMS_P2;Temp;Humidity;BMP_temperature;BMP_pressure;BME280_temperature;BME280_humidity;BME280_pressure;Samples;Min_cycle;Max_cycle;Signal;HPM_P1;HPM_P2
2023/07/19 00:01:28;;;;;;;10.48;6.32;;;;;;;;;;6196474;23;20095;-79
2023/07/19 00:03:55;;;;;;;11.10;6.90;;;;;;;;;;6196417;23;20029;-78
2023/07/19 00:06:23;;;;;;;9.23;6.43;;;;;;;;;;6196291;23;20174;-78
2023/07/19 00:08:50;;;;;;;10.40;6.43;;;;;;;;;;6197458;23;20021;-78
2023/07/19 00:11:17;;;;;;;11.00;7.00;;;;;;;;;;6197225;23;20031;-78
2023/07/19 00:13:45;;;;;;;9.20;6.18;;;;;;;;;;6196713;23;20021;-78
2023/07/19 00:16:12;;;;;;;12.63;7.75;;;;;;;;;;6196439;23;20021;-78
2023/07/19 00:18:39;;;;;;;9.80;6.32;;;;;;;;;;6197305;23;20451;-78
2023/07/19 00:21:06;;;;;;;9.70;5.95;;;;;;;;;;6197459;23;20021;-78
2023/07/19 00:23:33;;;;;;;10.43;6.70;;;;;;;;;;6197071;23;20115;-79
2023/07/19 00:26:00;;;;;;;7.05;5.35;;;;;;;;;;6197119;23;20322;-78
2023/07/19 00:28:27;;;;;;;8.68;5.78;;;;;;;;;;6198873;23;20025;-78
2023/07/19 00:31:01;;;;;;;8.68;5.40;;;;;;;;;;6198118;23;20021;-78
2023/07/19 00:33:28;;;;;;;9.15;5.40;;;;;;;;;;6198767;23;20025;-78
2023/07/19 00:35:55;;;;;;;8.48;5.00;;;;;;;;;;6198037;23;20035;-78
2023/07/19 00:38:22;;;;;;;7.60;5.38;;;;;;;;;;6199379;23;20079;-78
2023/07/19 00:40:49;;;;;;;7.90;5.00;;;;;;;;;;6197063;23;20071;-83
2023/07/19 00:43:16;;;;;;;8.63;4.78;;;;;;;;;;6197190;23;20025;-79
2023/07/19 00:45:46;;;;;;;7.70;5.10;;;;;;;;;;6197919;23;20032;-79
2023/07/19 00:48:16;;;;;;;7.82;5.30;;;;;;;;;;6198106;23;20021;-78
2023/07/19 00:50:43;;;;;;;8.20;4.93;;;;;;;;;;6195443;23;20100;-77
2023/07/19 00:53:10;;;;;;;7.93;5.03;;;;;;;;;;6189128;23;20036;-77
2023/07/19 00:55:37;;;;;;;8.73;5.47;;;;;;;;;;6193848;23;20017;-78
2023/07/19 00:58:04;;;;;;;9.23;5.35;;;;;;;;;;6195069;23;20017;-78
2023/07/19 01:00:31;;;;;;;9.38;5.78;;;;;;;;;;6194534;23;20021;-78
2023/07/19 01:02:59;;;;;;;8.63;6.10;;;;;;;;;;6194238;23;20395;-77
2023/07/19 01:05:27;;;;;;;8.82;5.75;;;;;;;;;;6187477;23;20349;-77
2023/07/19 01:07:55;;;;;;;8.40;6.30;;;;;;;;;;6184471;23;20020;-77
2023/07/19 01:10:23;;;;;;;8.27;5.57;;;;;;;;;;6184783;23;20032;-77
2023/07/19 01:13:03;;;;;;;10.45;6.20;;;;;;;;;;6184223;23;20025;-77
2023/07/19 01:15:29;;;;;;;;;;;;;;;;;;6185158;23;20067;-78
2023/07/19 01:17:56;;;;;;;11.77;7.18;;;;;;;;;;6184908;23;19920;-77
2023/07/19 01:20:23;;;;;;;9.95;6.50;;;;;;;;;;6184397;23;20105;-77
2023/07/19 01:22:51;;;;;;;9.93;6.55;;;;;;;;;;6184381;23;20079;-76
2023/07/19 01:25:18;;;;;;;9.95;6.85;;;;;;;;;;6184013;23;20025;-75
2023/07/19 01:27:45;;;;;;;9.00;6.97;;;;;;;;;;6184397;23;20352;-75
2023/07/19 01:30:13;;;;;;;10.55;6.20;;;;;;;;;;6184370;23;20025;-76
2023/07/19 01:32:40;;;;;;;8.40;5.70;;;;;;;;;;6184083;23;20083;-76
2023/07/19 01:35:07;;;;;;;9.55;5.63;;;;;;;;;;6183663;23;20033;-76
2023/07/19 01:37:34;;;;;;;10.43;5.13;;;;;;;;;;6184995;23;20032;-76
2023/07/19 01:40:02;;;;;;;9.45;5.38;;;;;;;;;;6184669;23;20025;-76
2023/07/19 01:42:29;;;;;;;10.10;5.97;;;;;;;;;;6186207;23;20048;-76
2023/07/19 01:44:57;;;;;;;10.10;5.68;;;;;;;;;;6185904;23;20025;-76
2023/07/19 01:47:23;;;;;;;9.50;5.70;;;;;;;;;;6189925;23;20029;-77
2023/07/19 01:49:50;;;;;;;8.77;4.70;;;;;;;;;;6186098;23;20044;-77
2023/07/19 01:52:17;;;;;;;12.90;5.68;;;;;;;;;;6186253;23;20025;-76
2023/07/19 01:54:44;;;;;;;9.27;4.82;;;;;;;;;;6185516;23;20427;-77
2023/07/19 01:57:13;;;;;;;8.60;4.93;;;;;;;;;;6186002;23;20025;-77
2023/07/19 01:59:39;;;;;;;9.90;6.18;;;;;;;;;;6185800;23;20404;-77
2023/07/19 02:02:06;;;;;;;10.65;5.25;;;;;;;;;;6185897;23;20025;-77
2023/07/19 02:04:33;;;;;;;9.57;4.95;;;;;;;;;;6188983;23;20025;-82
2023/07/19 02:07:00;;;;;;;8.82;5.03;;;;;;;;;;6195732;23;20021;-82
2023/07/19 02:09:27;;;;;;;8.32;5.13;;;;;;;;;;6195855;23;20021;-82
2023/07/19 02:11:54;;;;;;;8.75;5.32;;;;;;;;;;6195670;23;20024;-82
2023/07/19 02:14:22;;;;;;;9.90;6.00;;;;;;;;;;6194828;23;20021;-82
2023/07/19 02:16:49;;;;;;;10.70;6.07;;;;;;;;;;6194221;23;20032;-82
2023/07/19 02:19:16;;;;;;;10.85;5.82;;;;;;;;;;6194547;23;20021;-82
2023/07/19 02:21:43;;;;;;;9.82;5.30;;;;;;;;;;6195896;23;20021;-82
2023/07/19 02:24:10;;;;;;;9.52;5.35;;;;;;;;;;6194606;23;20067;-81
2023/07/19 02:26:37;;;;;;;11.15;5.15;;;;;;;;;;6193808;23;20028;-82
2023/07/19 02:29:04;;;;;;;8.48;5.70;;;;;;;;;;6194105;23;20025;-81
2023/07/19 02:31:32;;;;;;;8.77;5.18;;;;;;;;;;6193895;23;20018;-81
2023/07/19 02:33:59;;;;;;;9.90;5.82;;;;;;;;;;6193896;23;20021;-80
2023/07/19 02:36:26;;;;;;;7.85;4.63;;;;;;;;;;6194329;23;20021;-80
2023/07/19 02:38:52;;;;;;;9.40;5.10;;;;;;;;;;6194204;23;20025;-81
2023/07/19 02:41:19;;;;;;;7.45;4.63;;;;;;;;;;6194434;23;20404;-80
2023/07/19 02:43:46;;;;;;;10.40;4.70;;;;;;;;;;6193411;23;20021;-80
2023/07/19 02:46:13;;;;;;;8.25;4.47;;;;;;;;;;6193814;23;20025;-80
2023/07/19 02:48:41;;;;;;;11.23;5.18;;;;;;;;;;6193122;23;20017;-80
2023/07/19 02:51:08;;;;;;;7.53;4.35;;;;;;;;;;6193419;23;20029;-80
2023/07/19 02:53:35;;;;;;;10.00;4.53;;;;;;;;;;6193192;23;20032;-79
2023/07/19 02:56:02;;;;;;;11.98;5.35;;;;;;;;;;6192655;23;20516;-80
2023/07/19 02:58:29;;;;;;;10.00;4.38;;;;;;;;;;6193141;23;20024;-79
2023/07/19 03:00:55;;;;;;;8.95;4.47;;;;;;;;;;6192981;23;20040;-80
2023/07/19 03:03:22;;;;;;;9.02;4.90;;;;;;;;;;6192652;23;20102;-80
2023/07/19 03:05:51;;;;;;;8.88;5.10;;;;;;;;;;6194372;23;20025;-80
2023/07/19 03:08:17;;;;;;;13.60;4.80;;;;;;;;;;6193204;23;20087;-79
2023/07/19 03:10:44;;;;;;;12.70;5.00;;;;;;;;;;6194053;23;20033;-80
2023/07/19 03:13:13;;;;;;;7.85;4.30;;;;;;;;;;6193334;23;20029;-79
2023/07/19 03:15:40;;;;;;;8.65;4.15;;;;;;;;;;6192982;23;20388;-80
2023/07/19 03:18:07;;;;;;;8.48;4.53;;;;;;;;;;6193357;23;20350;-78
2023/07/19 03:20:36;;;;;;;8.95;4.68;;;;;;;;;;6192641;23;20028;-80
2023/07/19 03:23:05;;;;;;;10.77;4.57;;;;;;;;;;6193697;23;20087;-79
2023/07/19 03:25:31;;;;;;;8.43;4.55;;;;;;;;;;6193710;23;20634;-80
2023/07/19 03:28:00;;;;;;;7.93;4.97;;;;;;;;;;6193321;23;20483;-81
2023/07/19 03:30:27;;;;;;;8.93;5.15;;;;;;;;;;6194087;23;20072;-81
2023/07/19 03:32:54;;;;;;;10.43;5.50;;;;;;;;;;6193422;23;20021;-80
2023/07/19 03:35:21;;;;;;;10.15;5.13;;;;;;;;;;6193244;23;20380;-81
2023/07/19 03:37:48;;;;;;;12.23;5.13;;;;;;;;;;6192978;23;20025;-80
2023/07/19 03:40:16;;;;;;;9.45;5.00;;;;;;;;;;6193568;23;20025;-80
2023/07/19 03:42:43;;;;;;;8.05;4.45;;;;;;;;;;6193866;23;20079;-81
2023/07/19 03:45:10;;;;;;;11.38;5.45;;;;;;;;;;6193824;23;20028;-81
2023/07/19 03:47:39;;;;;;;10.98;5.72;;;;;;;;;;6193128;23;20028;-81
2023/07/19 03:50:07;;;;;;;9.07;5.40;;;;;;;;;;6193145;23;20096;-81
2023/07/19 03:52:34;;;;;;;9.32;5.57;;;;;;;;;;6192995;23;20096;-81
2023/07/19 03:55:01;;;;;;;11.38;5.75;;;;;;;;;;6193797;23;20025;-81
2023/07/19 03:57:29;;;;;;;10.07;5.47;;;;;;;;;;6193272;23;20400;-81
2023/07/19 03:59:56;;;;;;;11.60;5.40;;;;;;;;;;6194007;23;20028;-81
2023/07/19 04:02:23;;;;;;;11.80;6.85;;;;;;;;;;6194388;23;20100;-82
2023/07/19 04:04:50;;;;;;;10.75;6.00;;;;;;;;;;6196185;23;20071;-82
2023/07/19 04:07:17;;;;;;;10.38;5.25;;;;;;;;;;6194642;23;20036;-82
2023/07/19 04:09:45;;;;;;;9.45;5.40;;;;;;;;;;6193764;23;20036;-82
2023/07/19 04:12:12;;;;;;;10.88;5.50;;;;;;;;;;6195797;23;20095;-82
2023/07/19 04:14:40;;;;;;;11.48;5.50;;;;;;;;;;6194517;23;20035;-80
2023/07/19 04:17:07;;;;;;;10.35;5.63;;;;;;;;;;6194338;23;20032;-81
2023/07/19 04:19:34;;;;;;;12.52;5.82;;;;;;;;;;6192931;23;20025;-81
2023/07/19 04:22:01;;;;;;;12.25;5.55;;;;;;;;;;6192396;23;20017;-80
2023/07/19 04:24:28;;;;;;;11.02;5.32;;;;;;;;;;6192810;23;20020;-81
2023/07/19 04:26:55;;;;;;;10.25;4.68;;;;;;;;;;6191701;23;20453;-81
2023/07/19 04:29:22;;;;;;;9.52;4.80;;;;;;;;;;6192710;23;20025;-83
2023/07/19 04:31:50;;;;;;;11.52;6.50;;;;;;;;;;6194181;23;20029;-82
2023/07/19 04:34:17;;;;;;;10.65;6.10;;;;;;;;;;6192642;23;20025;-82
2023/07/19 04:36:44;;;;;;;10.20;5.43;;;;;;;;;;6192967;23;20032;-82
2023/07/19 04:39:11;;;;;;;10.10;5.95;;;;;;;;;;6194352;23;20032;-82
2023/07/19 04:41:38;;;;;;;10.40;5.55;;;;;;;;;;6195334;23;20028;-81
2023/07/19 04:44:05;;;;;;;10.07;5.38;;;;;;;;;;6192257;23;20072;-82
2023/07/19 04:46:32;;;;;;;10.95;5.85;;;;;;;;;;6192205;23;20112;-81
2023/07/19 04:49:00;;;;;;;11.57;5.35;;;;;;;;;;6193512;23;20036;-81
2023/07/19 04:51:27;;;;;;;9.77;5.50;;;;;;;;;;6192148;23;20025;-78
2023/07/19 04:53:54;;;;;;;9.48;6.05;;;;;;;;;;6193098;23;20029;-80
2023/07/19 04:56:21;;;;;;;13.90;6.63;;;;;;;;;;6193428;23;20028;-81
2023/07/19 04:58:48;;;;;;;11.18;6.43;;;;;;;;;;6192109;23;20021;-81
2023/07/19 05:01:14;;;;;;;11.93;6.75;;;;;;;;;;6192573;23;20049;-81
2023/07/19 05:03:41;;;;;;;11.60;6.32;;;;;;;;;;6190888;23;20496;-81
2023/07/19 05:06:09;;;;;;;8.85;6.20;;;;;;;;;;6191618;23;20496;-81
2023/07/19 05:08:37;;;;;;;11.77;6.45;;;;;;;;;;6190914;23;20021;-80
2023/07/19 05:11:04;;;;;;;9.00;6.13;;;;;;;;;;6190755;23;20025;-81
2023/07/19 05:13:31;;;;;;;12.85;7.78;;;;;;;;;;6191356;23;20031;-80
2023/07/19 05:15:58;;;;;;;10.90;5.80;;;;;;;;;;6191690;23;20377;-81
2023/07/19 05:18:24;;;;;;;10.82;5.95;;;;;;;;;;6191672;23;20020;-81
2023/07/19 05:20:52;;;;;;;8.98;5.20;;;;;;;;;;6190684;23;20028;-80
2023/07/19 05:23:20;;;;;;;9.48;5.03;;;;;;;;;;6191391;23;20072;-81
2023/07/19 05:25:47;;;;;;;11.13;6.20;;;;;;;;;;6192187;23;20071;-81
2023/07/19 05:28:14;;;;;;;9.63;5.28;;;;;;;;;;6190551;23;20023;-81
2023/07/19 05:30:41;;;;;;;8.93;5.35;;;;;;;;;;6190131;23;20020;-81
2023/07/19 05:33:08;;;;;;;10.10;5.03;;;;;;;;;;6190749;23;20032;-82
2023/07/19 05:35:35;;;;;;;10.23;5.68;;;;;;;;;;6190962;23;20021;-81
2023/07/19 05:38:03;;;;;;;9.18;5.15;;;;;;;;;;6191861;23;20076;-83
2023/07/19 05:40:32;;;;;;;9.70;5.43;;;;;;;;;;6193660;23;20059;-81
2023/07/19 05:42:59;;;;;;;11.63;5.43;;;;;;;;;;6191857;23;20068;-80
2023/07/19 05:45:26;;;;;;;8.70;4.80;;;;;;;;;;6191801;23;20021;-81
2023/07/19 05:47:53;;;;;;;10.10;4.93;;;;;;;;;;6190263;23;20072;-79
2023/07/19 05:50:20;;;;;;;9.80;5.15;;;;;;;;;;6190386;23;20028;-81
2023/07/19 05:52:47;;;;;;;11.40;5.32;;;;;;;;;;6191118;23;20076;-81
2023/07/19 05:55:14;;;;;;;8.10;4.75;;;;;;;;;;6190154;23;20074;-80
2023/07/19 05:57:42;;;;;;;10.98;5.10;;;;;;;;;;6190759;23;20021;-80
2023/07/19 06:00:22;;;;;;;10.25;5.20;;;;;;;;;;6190523;23;20375;-80
2023/07/19 06:02:52;;;;;;;11.63;5.50;;;;;;;;;;6190771;23;20021;-81
2023/07/19 06:05:19;;;;;;;7.88;5.45;;;;;;;;;;6191972;23;20329;-80
2023/07/19 06:07:47;;;;;;;9.88;5.32;;;;;;;;;;6189948;23;20032;-80
2023/07/19 06:10:15;;;;;;;11.35;5.63;;;;;;;;;;6191335;23;20080;-80
2023/07/19 06:12:45;;;;;;;9.50;5.32;;;;;;;;;;6191803;23;20021;-81
2023/07/19 06:15:12;;;;;;;8.68;4.72;;;;;;;;;;6191100;23;20032;-81
2023/07/19 06:17:39;;;;;;;8.82;5.07;;;;;;;;;;6191234;23;20025;-81
2023/07/19 06:20:07;;;;;;;8.50;5.00;;;;;;;;;;6189745;23;20017;-82
2023/07/19 06:22:34;;;;;;;9.90;5.03;;;;;;;;;;6191889;23;20025;-81
2023/07/19 06:25:00;;;;;;;10.30;4.95;;;;;;;;;;6192339;23;20088;-81
2023/07/19 06:27:27;;;;;;;9.68;5.93;;;;;;;;;;6192798;23;20411;-82
2023/07/19 06:29:56;;;;;;;13.57;5.53;;;;;;;;;;6192184;23;20021;-80
2023/07/19 06:32:22;;;;;;;14.00;5.93;;;;;;;;;;6192237;23;20021;-80
2023/07/19 06:34:49;;;;;;;11.30;5.88;;;;;;;;;;6191251;23;20051;-81
2023/07/19 06:37:16;;;;;;;11.13;4.57;;;;;;;;;;6191971;23;20017;-82
2023/07/19 06:39:43;;;;;;;8.27;4.72;;;;;;;;;;6191783;23;20083;-81
2023/07/19 06:42:09;;;;;;;10.57;5.68;;;;;;;;;;6192542;23;20079;-82
2023/07/19 06:44:36;;;;;;;9.18;5.60;;;;;;;;;;6191252;23;20049;-82
2023/07/19 06:47:05;;;;;;;8.30;5.10;;;;;;;;;;6193312;23;20025;-81
2023/07/19 06:49:32;;;;;;;13.02;5.82;;;;;;;;;;6192595;23;20021;-81
2023/07/19 06:51:59;;;;;;;10.30;5.28;;;;;;;;;;6192514;23;20025;-82
2023/07/19 06:54:26;;;;;;;13.65;5.78;;;;;;;;;;6191219;23;20058;-81
2023/07/19 06:56:53;;;;;;;9.15;4.70;;;;;;;;;;6192972;23;20210;-81
2023/07/19 06:59:19;;;;;;;9.38;4.95;;;;;;;;;;6193159;23;20025;-82
2023/07/19 07:01:46;;;;;;;8.95;5.32;;;;;;;;;;6192338;23;20017;-82
2023/07/19 07:04:14;;;;;;;8.48;5.03;;;;;;;;;;6191994;23;20464;-82
2023/07/19 07:06:41;;;;;;;9.27;5.43;;;;;;;;;;6191936;23;20025;-81
2023/07/19 07:09:08;;;;;;;9.95;6.05;;;;;;;;;;6191992;23;20048;-81
2023/07/19 07:11:35;;;;;;;9.05;6.18;;;;;;;;;;6192773;23;20032;-81
2023/07/19 07:14:02;;;;;;;12.98;5.65;;;;;;;;;;6193219;23;20373;-81
2023/07/19 07:16:29;;;;;;;10.95;5.70;;;;;;;;;;6192165;23;20402;-79
2023/07/19 07:18:56;;;;;;;13.30;5.72;;;;;;;;;;6192067;23;20032;-81
2023/07/19 07:21:24;;;;;;;11.13;5.78;;;;;;;;;;6194087;23;20025;-81
2023/07/19 07:23:51;;;;;;;7.85;5.30;;;;;;;;;;6197443;23;20025;-80
2023/07/19 07:26:18;;;;;;;12.80;5.43;;;;;;;;;;6193540;23;20576;-79
2023/07/19 07:28:45;;;;;;;8.85;5.70;;;;;;;;;;6196204;23;20017;-80
2023/07/19 07:31:12;;;;;;;9.23;5.85;;;;;;;;;;6186462;23;20060;-79
2023/07/19 07:33:39;;;;;;;8.68;5.70;;;;;;;;;;6186592;23;20537;-78
2023/07/19 07:36:06;;;;;;;10.20;5.43;;;;;;;;;;6184198;23;20025;-77
2023/07/19 07:38:35;;;;;;;11.43;6.22;;;;;;;;;;6182651;23;20095;-77
2023/07/19 07:41:03;;;;;;;9.65;5.82;;;;;;;;;;6182473;23;20091;-77
2023/07/19 07:43:30;;;;;;;10.52;5.40;;;;;;;;;;6182077;23;20108;-77
2023/07/19 07:45:57;;;;;;;9.07;6.03;;;;;;;;;;6182072;23;20025;-77
2023/07/19 07:48:24;;;;;;;8.95;5.45;;;;;;;;;;6182500;23;20028;-77
2023/07/19 07:50:51;;;;;;;9.88;6.00;;;;;;;;;;6182909;23;20032;-77
2023/07/19 07:53:18;;;;;;;11.57;6.35;;;;;;;;;;6182704;23;20052;-77
2023/07/19 07:55:47;;;;;;;8.63;5.32;;;;;;;;;;6182276;23;20457;-77
2023/07/19 07:58:14;;;;;;;10.35;5.97;;;;;;;;;;6183605;23;20025;-78
2023/07/19 08:00:41;;;;;;;8.25;6.13;;;;;;;;;;6183681;23;20029;-78
2023/07/19 08:03:08;;;;;;;8.68;5.25;;;;;;;;;;6183664;23;20391;-78
2023/07/19 08:05:35;;;;;;;8.23;5.25;;;;;;;;;;6182942;23;20028;-78
2023/07/19 08:08:03;;;;;;;9.25;5.60;;;;;;;;;;6183057;23;20029;-78
2023/07/19 08:10:30;;;;;;;12.20;5.55;;;;;;;;;;6188906;23;20079;-81
2023/07/19 08:12:58;;;;;;;8.35;5.28;;;;;;;;;;6188578;23;20021;-80
2023/07/19 08:15:25;;;;;;;8.88;5.38;;;;;;;;;;6189669;23;20021;-82
2023/07/19 08:17:53;;;;;;;10.90;6.68;;;;;;;;;;6189602;23;20024;-78
2023/07/19 08:20:20;;;;;;;7.95;4.90;;;;;;;;;;6189439;23;20021;-81
2023/07/19 08:22:47;;;;;;;10.70;5.43;;;;;;;;;;6186438;23;20020;-82
2023/07/19 08:25:16;;;;;;;15.52;10.60;;;;;;;;;;6187649;23;20021;-76
2023/07/19 08:27:44;;;;;;;8.88;5.55;;;;;;;;;;6184827;23;20036;-77
2023/07/19 08:30:15;;;;;;;6.93;4.70;;;;;;;;;;6186048;23;20052;-79
2023/07/19 08:32:43;;;;;;;6.57;4.25;;;;;;;;;;6186582;23;20025;-80
2023/07/19 08:35:10;;;;;;;7.68;4.38;;;;;;;;;;6188118;23;20079;-81
2023/07/19 08:37:37;;;;;;;7.22;3.85;;;;;;;;;;6190652;23;20021;-79
2023/07/19 08:40:05;;;;;;;7.38;4.43;;;;;;;;;;6188068;23;20095;-79
2023/07/19 08:42:33;;;;;;;7.70;4.53;;;;;;;;;;6188630;23;20080;-78
2023/07/19 08:45:00;;;;;;;8.18;5.00;;;;;;;;;;6188765;23;20020;-81
2023/07/19 08:47:30;;;;;;;6.82;4.85;;;;;;;;;;6190929;23;20096;-77
2023/07/19 08:49:57;;;;;;;;;;;;;;;;;;6191722;23;20031;-80
2023/07/19 08:52:25;;;;;;;8.43;4.45;;;;;;;;;;6191003;23;19920;-80
2023/07/19 08:54:52;;;;;;;7.80;4.78;;;;;;;;;;6187480;23;20029;-77
2023/07/19 08:57:19;;;;;;;9.35;4.93;;;;;;;;;;6188103;23;20025;-79
2023/07/19 08:59:46;;;;;;;7.30;4.88;;;;;;;;;;6188672;23;20032;-78
2023/07/19 09:02:13;;;;;;;6.20;4.40;;;;;;;;;;6191579;23;20029;-79
2023/07/19 09:04:41;;;;;;;6.30;4.43;;;;;;;;;;6187801;23;20738;-79
2023/07/19 09:07:08;;;;;;;8.35;4.95;;;;;;;;;;6183298;23;20021;-75
2023/07/19 09:09:35;;;;;;;9.55;5.45;;;;;;;;;;6180692;23;20025;-75
2023/07/19 09:12:01;;;;;;;15.05;5.43;;;;;;;;;;6181161;23;20021;-74
2023/07/19 09:14:35;;;;;;;6.93;4.47;;;;;;;;;;6179785;23;20029;-75
2023/07/19 09:17:02;;;;;;;8.73;5.13;;;;;;;;;;6181409;23;20278;-75
2023/07/19 09:19:29;;;;;;;8.18;4.50;;;;;;;;;;6181562;23;20080;-75
2023/07/19 09:22:03;;;;;;;7.88;4.50;;;;;;;;;;6181042;23;20138;-76
2023/07/19 09:24:30;;;;;;;7.57;4.75;;;;;;;;;;6180005;23;20071;-77
2023/07/19 09:26:57;;;;;;;8.23;4.40;;;;;;;;;;6181428;23;20032;-77
2023/07/19 09:29:24;;;;;;;7.60;4.90;;;;;;;;;;6181788;23;20036;-75
2023/07/19 09:31:54;;;;;;;9.93;4.88;;;;;;;;;;6179855;23;20032;-74
2023/07/19 09:34:26;;;;;;;7.82;4.57;;;;;;;;;;6180910;23;20703;-76
2023/07/19 09:36:53;;;;;;;6.47;4.15;;;;;;;;;;6180879;23;20031;-76
2023/07/19 09:39:22;;;;;;;7.22;5.10;;;;;;;;;;6181053;23;20025;-77
2023/07/19 09:41:49;;;;;;;7.63;4.65;;;;;;;;;;6182412;23;20025;-79
2023/07/19 09:44:16;;;;;;;6.90;4.07;;;;;;;;;;6182320;23;20128;-78
2023/07/19 09:46:44;;;;;;;9.23;4.43;;;;;;;;;;6184906;23;20025;-79
2023/07/19 09:49:11;;;;;;;7.57;4.40;;;;;;;;;;6185651;23;20025;-77
2023/07/19 09:51:41;;;;;;;6.93;3.80;;;;;;;;;;6186718;23;20029;-78
2023/07/19 09:54:09;;;;;;;7.88;4.28;;;;;;;;;;6184088;23;20420;-77
2023/07/19 09:56:39;;;;;;;6.32;4.07;;;;;;;;;;6184329;23;20056;-77
2023/07/19 09:59:07;;;;;;;;;;;;;;;;;;6184250;23;20021;-75
2023/07/19 10:01:34;;;;;;;8.25;4.38;;;;;;;;;;6182942;23;19920;-75
2023/07/19 10:04:02;;;;;;;8.90;3.92;;;;;;;;;;6182102;23;20076;-76
2023/07/19 10:06:30;;;;;;;6.00;3.88;;;;;;;;;;6184377;23;20084;-76
2023/07/19 10:09:31;;;;;;;8.10;4.28;;;;;;;;;;6181628;23;20162;-75
2023/07/19 10:12:01;;;;;;;7.93;4.40;;;;;;;;;;6188241;23;20526;-76
2023/07/19 10:14:29;;;;;;;10.07;4.10;;;;;;;;;;6182380;23;20028;-76
2023/07/19 10:16:59;;;;;;;5.72;4.05;;;;;;;;;;6182999;23;20095;-75
2023/07/19 10:19:27;;;;;;;7.30;3.88;;;;;;;;;;6182970;23;20348;-76
2023/07/19 10:22:11;;;;;;;6.90;4.22;;;;;;;;;;6182820;23;20029;-75
2023/07/19 10:24:39;;;;;;;7.95;4.40;;;;;;;;;;6182511;23;20461;-75
2023/07/19 10:27:10;;;;;;;6.90;4.05;;;;;;;;;;6182824;23;20469;-75
2023/07/19 10:29:41;;;;;;;8.23;4.43;;;;;;;;;;6182217;23;20261;-75
2023/07/19 10:32:08;;;;;;;5.60;3.88;;;;;;;;;;6183157;23;20021;-75
2023/07/19 10:34:35;;;;;;;8.27;5.03;;;;;;;;;;6190314;23;20079;-75
2023/07/19 10:37:03;;;;;;;7.28;4.32;;;;;;;;;;6187688;23;20021;-75
2023/07/19 10:39:30;;;;;;;7.50;4.20;;;;;;;;;;6183006;23;20096;-76
2023/07/19 10:41:57;;;;;;;6.65;4.55;;;;;;;;;;6183495;23;20377;-75
2023/07/19 10:44:26;;;;;;;6.13;3.92;;;;;;;;;;6183070;23;20021;-76
2023/07/19 10:46:53;;;;;;;5.53;3.88;;;;;;;;;;6183921;23;20075;-76
2023/07/19 10:49:21;;;;;;;6.22;4.43;;;;;;;;;;6185033;23;20017;-76
2023/07/19 10:51:55;;;;;;;7.22;4.75;;;;;;;;;;6185471;23;20021;-75
2023/07/19 10:54:22;;;;;;;7.82;4.25;;;;;;;;;;6184431;23;20129;-75
2023/07/19 10:56:50;;;;;;;6.80;4.45;;;;;;;;;;6183771;23;20092;-77
2023/07/19 10:59:17;;;;;;;6.93;4.38;;;;;;;;;;6182370;23;20025;-77
2023/07/19 11:01:48;;;;;;;6.70;4.70;;;;;;;;;;6183324;23;20036;-77
2023/07/19 11:04:18;;;;;;;6.75;4.53;;;;;;;;;;6181621;23;20052;-76
2023/07/19 11:06:54;;;;;;;;;;;;;;;;;;6183110;23;20427;-77
2023/07/19 11:09:22;;;;;;;10.65;5.28;;;;;;;;;;6181976;23;19990;-76
2023/07/19 11:11:49;;;;;;;7.20;4.57;;;;;;;;;;6181659;23;20024;-76
2023/07/19 11:14:28;;;;;;;9.45;5.00;;;;;;;;;;6182109;23;20025;-77
2023/07/19 11:16:57;;;;;;;6.60;4.57;;;;;;;;;;6182091;23;20349;-77
2023/07/19 11:19:38;;;;;;;7.53;4.88;;;;;;;;;;6182472;23;20044;-77
2023/07/19 11:22:05;;;;;;;7.03;4.28;;;;;;;;;;6182514;23;20457;-76
2023/07/19 11:24:37;;;;;;;6.80;4.40;;;;;;;;;;6181999;23;20021;-76
2023/07/19 11:27:04;;;;;;;6.78;3.67;;;;;;;;;;6181924;23;20075;-76
2023/07/19 11:29:32;;;;;;;6.85;4.28;;;;;;;;;;6182028;23;20021;-77
2023/07/19 11:32:20;;;;;;;6.68;4.32;;;;;;;;;;6181678;23;20540;-76
2023/07/19 11:34:48;;;;;;;7.38;4.10;;;;;;;;;;6181421;23;20413;-76
2023/07/19 11:37:22;;;;;;;6.25;3.88;;;;;;;;;;6181762;23;20083;-77
2023/07/19 11:39:49;;;;;;;5.38;3.60;;;;;;;;;;6182130;23;20025;-77
2023/07/19 11:42:31;;;;;;;7.13;3.95;;;;;;;;;;6181632;23;20067;-77
2023/07/19 11:44:58;;;;;;;6.55;4.28;;;;;;;;;;6180232;23;20027;-76
2023/07/19 11:47:26;;;;;;;7.72;4.20;;;;;;;;;;6181786;23;20349;-76
2023/07/19 11:49:53;;;;;;;5.63;4.22;;;;;;;;;;6181843;23;20032;-76
2023/07/19 11:52:20;;;;;;;6.93;4.03;;;;;;;;;;6182228;23;20052;-78
2023/07/19 11:54:47;;;;;;;5.90;4.30;;;;;;;;;;6181112;23;20396;-76
2023/07/19 11:57:13;;;;;;;7.70;4.63;;;;;;;;;;6181712;23;20021;-76
2023/07/19 11:59:40;;;;;;;6.15;4.03;;;;;;;;;;6181899;23;20029;-77
2023/07/19 12:02:08;;;;;;;5.38;4.10;;;;;;;;;;6180635;23;20025;-75
2023/07/19 12:04:36;;;;;;;6.38;3.85;;;;;;;;;;6179926;23;20060;-75
2023/07/19 12:07:04;;;;;;;12.25;4.10;;;;;;;;;;6181298;23;20025;-76
2023/07/19 12:09:30;;;;;;;5.85;3.70;;;;;;;;;;6181191;23;20490;-75
2023/07/19 12:11:57;;;;;;;7.95;4.55;;;;;;;;;;6181363;23;20021;-78
2023/07/19 12:14:24;;;;;;;5.88;4.13;;;;;;;;;;6181549;23;20356;-76
2023/07/19 12:16:51;;;;;;;5.63;4.10;;;;;;;;;;6181468;23;20021;-76
2023/07/19 12:19:18;;;;;;;6.07;4.15;;;;;;;;;;6179337;23;20035;-76
2023/07/19 12:21:47;;;;;;;6.47;3.80;;;;;;;;;;6183033;23;20368;-76
2023/07/19 12:24:13;;;;;;;4.95;3.55;;;;;;;;;;6180777;23;20031;-76
2023/07/19 12:26:41;;;;;;;5.28;3.63;;;;;;;;;;6180168;23;20025;-76
2023/07/19 12:29:07;;;;;;;8.23;4.18;;;;;;;;;;6181121;23;20025;-76
2023/07/19 12:31:34;;;;;;;6.57;3.50;;;;;;;;;;6181454;23;20088;-76
2023/07/19 12:34:01;;;;;;;7.75;3.80;;;;;;;;;;6181139;23;20457;-74
2023/07/19 12:36:28;;;;;;;6.38;4.22;;;;;;;;;;6181421;23;20420;-75
2023/07/19 12:38:57;;;;;;;8.48;3.85;;;;;;;;;;6181261;23;20029;-75
2023/07/19 12:41:24;;;;;;;7.03;4.53;;;;;;;;;;6182056;23;20035;-76
2023/07/19 12:43:51;;;;;;;6.88;3.80;;;;;;;;;;6179601;23;20266;-75
2023/07/19 12:46:19;;;;;;;7.28;4.03;;;;;;;;;;6180808;23;20021;-75
2023/07/19 12:48:48;;;;;;;6.65;3.47;;;;;;;;;;6180625;23;20064;-76
2023/07/19 12:51:15;;;;;;;7.68;3.65;;;;;;;;;;6180149;23;20029;-75
2023/07/19 12:53:42;;;;;;;7.95;3.75;;;;;;;;;;6180631;23;20453;-75
2023/07/19 12:56:10;;;;;;;6.00;3.50;;;;;;;;;;6180854;23;20392;-75
2023/07/19 12:58:37;;;;;;;7.95;3.72;;;;;;;;;;6180837;23;20029;-75
2023/07/19 13:01:04;;;;;;;7.72;3.78;;;;;;;;;;6180330;23;20035;-75
2023/07/19 13:03:31;;;;;;;6.90;3.85;;;;;;;;;;6180352;23;20048;-76
2023/07/19 13:05:57;;;;;;;6.78;3.15;;;;;;;;;;6179799;23;20017;-75
2023/07/19 13:08:24;;;;;;;6.22;4.05;;;;;;;;;;6181443;23;20048;-75
2023/07/19 13:10:51;;;;;;;4.90;3.50;;;;;;;;;;6180000;23;20457;-75
2023/07/19 13:13:19;;;;;;;6.32;4.07;;;;;;;;;;6179116;23;20076;-75
2023/07/19 13:15:46;;;;;;;7.03;3.90;;;;;;;;;;6180595;23;20033;-77
2023/07/19 13:18:14;;;;;;;6.88;3.88;;;;;;;;;;6180272;23;20025;-76
2023/07/19 13:20:41;;;;;;;6.15;3.80;;;;;;;;;;6180449;23;20021;-76
2023/07/19 13:23:08;;;;;;;6.07;3.63;;;;;;;;;;6180452;23;20076;-76
2023/07/19 13:25:35;;;;;;;5.75;3.80;;;;;;;;;;6180919;23;20025;-74
2023/07/19 13:28:02;;;;;;;6.70;4.25;;;;;;;;;;6182049;23;20071;-79
2023/07/19 13:30:30;;;;;;;6.75;3.72;;;;;;;;;;6185061;23;20075;-76
2023/07/19 13:32:57;;;;;;;5.97;3.80;;;;;;;;;;6187467;23;20017;-80
2023/07/19 13:35:24;;;;;;;6.25;3.70;;;;;;;;;;6191949;23;20028;-79
2023/07/19 13:37:51;;;;;;;6.63;3.40;;;;;;;;;;6190665;23;20072;-79
2023/07/19 13:40:18;;;;;;;7.30;3.72;;;;;;;;;;6192771;23;20052;-78
2023/07/19 13:42:45;;;;;;;7.13;3.75;;;;;;;;;;6190248;23;20059;-77
2023/07/19 13:45:11;;;;;;;7.97;4.10;;;;;;;;;;6183723;23;20033;-76
2023/07/19 13:47:40;;;;;;;13.57;5.40;;;;;;;;;;6183399;23;20071;-78
2023/07/19 13:50:07;;;;;;;12.25;5.00;;;;;;;;;;6184098;23;20025;-78
2023/07/19 13:52:34;;;;;;;8.73;4.05;;;;;;;;;;6183757;23;20403;-78
2023/07/19 13:55:01;;;;;;;7.30;3.90;;;;;;;;;;6183331;23;20097;-76
2023/07/19 13:57:29;;;;;;;8.18;4.00;;;;;;;;;;6183743;23;20017;-77
2023/07/19 13:59:56;;;;;;;7.18;4.10;;;;;;;;;;6183117;23;20404;-77
2023/07/19 14:02:23;;;;;;;9.00;3.70;;;;;;;;;;6183211;23;20092;-78
2023/07/19 14:04:51;;;;;;;6.85;3.55;;;;;;;;;;6182061;23;20025;-77
2023/07/19 14:07:18;;;;;;;7.63;4.10;;;;;;;;;;6182926;23;20048;-76
2023/07/19 14:09:45;;;;;;;7.70;3.85;;;;;;;;;;6182460;23;20051;-79
2023/07/19 14:12:14;;;;;;;7.88;3.83;;;;;;;;;;6182992;23;20021;-79
2023/07/19 14:14:41;;;;;;;6.43;4.50;;;;;;;;;;6182529;23;20626;-78
2023/07/19 14:17:08;;;;;;;5.25;3.50;;;;;;;;;;6183034;23;20021;-78
2023/07/19 14:19:35;;;;;;;7.50;3.60;;;;;;;;;;6181781;23;20029;-78
2023/07/19 14:22:04;;;;;;;6.82;3.65;;;;;;;;;;6181546;23;20460;-77
2023/07/19 14:24:30;;;;;;;5.97;3.63;;;;;;;;;;6180829;23;20029;-76
2023/07/19 14:26:57;;;;;;;5.43;3.17;;;;;;;;;;6182533;23;20032;-77
2023/07/19 14:29:24;;;;;;;5.53;3.30;;;;;;;;;;6182676;23;20029;-78
2023/07/19 14:31:51;;;;;;;4.95;3.45;;;;;;;;;;6182402;23;20025;-78
2023/07/19 14:34:18;;;;;;;6.03;3.95;;;;;;;;;;6181674;23;20424;-80
2023/07/19 14:36:45;;;;;;;6.00;3.50;;;;;;;;;;6181520;23;20049;-78
2023/07/19 14:39:13;;;;;;;6.22;3.58;;;;;;;;;;6182521;23;20033;-78
2023/07/19 14:41:40;;;;;;;5.93;3.40;;;;;;;;;;6182720;23;20025;-77
2023/07/19 14:44:07;;;;;;;5.40;3.42;;;;;;;;;;6181416;23;20067;-77